createdAt,value
2018-11-05T00:00:00.068Z,0
2018-11-05T00:04:59.697Z,0
2018-11-05T00:10:00.254Z,0
2018-11-05T00:14:59.708Z,0
2018-11-05T00:19:59.511Z,0
2018-11-05T00:24:59.415Z,0
2018-11-05T00:29:59.938Z,0
2018-11-05T00:34:59.805Z,0
2018-11-05T00:39:59.220Z,0
2018-11-05T00:44:59.571Z,0
2018-11-05T00:49:59.543Z,0
2018-11-05T00:54:59.381Z,0
2018-11-05T00:59:59.882Z,0
2018-11-05T01:05:00.295Z,0
2018-11-05T01:10:00.284Z,0
2018-11-05T01:15:03.282Z,0
2018-11-05T01:19:59.465Z,0
2018-11-05T01:24:59.521Z,0
2018-11-05T01:30:00.808Z,0
2018-11-05T01:34:59.451Z,0
2018-11-05T01:39:59.338Z,0
2018-11-05T01:44:59.863Z,0
2018-11-05T01:49:59.675Z,0
2018-11-05T01:55:00.539Z,0
2018-11-05T02:00:05.755Z,0
2018-11-05T02:04:59.223Z,0
2018-11-05T02:10:02.021Z,0
2018-11-05T02:15:01.538Z,0
2018-11-05T02:19:59.634Z,0
2018-11-05T02:24:59.406Z,0
2018-11-05T02:30:01.656Z,0
2018-11-05T02:34:59.606Z,0
2018-11-05T02:39:59.239Z,0
2018-11-05T02:45:00.376Z,0
2018-11-05T02:49:59.271Z,0
2018-11-05T02:54:59.120Z,0
2018-11-05T03:00:01.857Z,0
2018-11-05T03:04:59.938Z,0
2018-11-05T03:09:59.603Z,0
2018-11-05T03:15:01.861Z,0
2018-11-05T03:20:02.373Z,0
2018-11-05T03:24:59.080Z,0
2018-11-05T03:30:03.241Z,0
2018-11-05T03:35:00.352Z,0
2018-11-05T03:40:01.220Z,0
2018-11-05T03:45:02.596Z,0
2018-11-05T03:50:00.769Z,0
2018-11-05T03:54:59.980Z,0
2018-11-05T04:00:01.972Z,0
2018-11-05T04:04:59.032Z,0
2018-11-05T04:09:59.460Z,0
2018-11-05T04:15:00.765Z,0
2018-11-05T04:19:58.977Z,0
2018-11-05T04:24:59.226Z,0
2018-11-05T04:30:00.854Z,0
2018-11-05T04:34:59.153Z,0
2018-11-05T04:39:59.551Z,0
2018-11-05T04:44:59.164Z,0
2018-11-05T04:49:59.112Z,0
2018-11-05T04:54:59.570Z,0
2018-11-05T05:00:00.008Z,0
2018-11-05T05:04:59.305Z,0
2018-11-05T05:09:59.875Z,0
2018-11-05T05:14:59.774Z,0
2018-11-05T05:19:59.845Z,0
2018-11-05T05:24:59.988Z,0
2018-11-05T05:29:58.689Z,0
2018-11-05T05:34:58.765Z,0
2018-11-05T05:39:59.205Z,0
2018-11-05T05:44:59.303Z,0
2018-11-05T05:49:59.985Z,0
2018-11-05T05:54:59.265Z,0
2018-11-05T05:59:59.623Z,0
2018-11-05T06:04:58.826Z,0
2018-11-05T06:09:59.733Z,0
2018-11-05T06:14:58.844Z,0
2018-11-05T06:19:59.834Z,0
2018-11-05T06:24:58.879Z,0
2018-11-05T06:29:59.844Z,0
2018-11-05T06:34:59.149Z,0
2018-11-05T06:39:58.701Z,0
2018-11-05T06:44:59.263Z,0
2018-11-05T06:49:58.894Z,0.8
2018-11-05T06:54:58.780Z,0.8
2018-11-05T07:00:00.942Z,1.7
2018-11-05T07:05:00.029Z,2.5
2018-11-05T07:09:59.123Z,3.3
2018-11-05T07:15:05.539Z,4.2
2018-11-05T07:19:59.417Z,5.8
2018-11-05T07:24:58.896Z,7.5
2018-11-05T07:30:00.199Z,7.5
2018-11-05T07:34:59.050Z,8.3
2018-11-05T07:39:59.432Z,8.3
2018-11-05T07:45:00.818Z,9.2
2018-11-05T07:50:00.767Z,9.2
2018-11-05T07:54:59.611Z,10
2018-11-05T08:00:06.579Z,10.8
2018-11-05T08:05:00.609Z,13.3
2018-11-05T08:09:59.106Z,16.7
2018-11-05T08:15:01.775Z,19.2
2018-11-05T08:19:59.197Z,21.7
2018-11-05T08:24:59.425Z,25
2018-11-05T08:29:59.854Z,29.2
2018-11-05T08:34:58.708Z,35.8
2018-11-05T08:39:59.060Z,42.5
2018-11-05T08:44:59.166Z,45.8
2018-11-05T08:49:59.026Z,46.7
2018-11-05T08:54:59.268Z,48.3
2018-11-05T08:59:59.283Z,64.2
2018-11-05T09:04:59.476Z,69.2
2018-11-05T09:09:58.744Z,74.2
2018-11-05T09:14:58.914Z,74.2
2018-11-05T09:19:58.853Z,70.8
2018-11-05T09:24:58.770Z,65
2018-11-05T09:29:59.686Z,55.8
2018-11-05T09:34:58.393Z,51.7
2018-11-05T09:39:58.569Z,50
2018-11-05T09:44:58.348Z,58.3
2018-11-05T09:49:58.311Z,78.3
2018-11-05T09:54:59.107Z,82.5
2018-11-05T09:59:58.958Z,78.3
2018-11-05T10:04:58.606Z,67.5
2018-11-05T10:09:58.896Z,63.3
2018-11-05T10:14:58.797Z,67.5
2018-11-05T10:19:58.939Z,62.5
2018-11-05T10:24:58.696Z,57.5
2018-11-05T10:29:58.476Z,55.8
2018-11-05T10:34:58.155Z,61.7
2018-11-05T10:39:58.585Z,60
2018-11-05T10:44:58.573Z,63.3
2018-11-05T10:49:58.309Z,62.5
2018-11-05T10:54:59.264Z,67.5
2018-11-05T11:05:13.732Z,67.5
2018-11-05T11:10:04.565Z,99.2
2018-11-05T11:15:04.308Z,104.2
2018-11-05T11:20:04.304Z,102.5
2018-11-05T11:25:04.250Z,124.2
2018-11-05T11:30:04.211Z,125.8
2018-11-05T11:35:04.394Z,132.5
2018-11-05T11:40:04.650Z,143.3
2018-11-05T11:45:04.306Z,150.8
2018-11-05T11:50:04.453Z,189.2
2018-11-05T11:55:04.712Z,115
2018-11-05T12:00:04.459Z,128.3
2018-11-05T12:05:04.369Z,71.7
2018-11-05T12:10:04.255Z,109.2
2018-11-05T12:15:04.739Z,70.8
2018-11-05T12:20:04.210Z,80
2018-11-05T12:25:04.353Z,75
2018-11-05T12:30:04.483Z,71.7
2018-11-05T12:35:04.687Z,136.7
2018-11-05T12:40:04.481Z,116.7
2018-11-05T12:45:04.364Z,129.2
2018-11-05T12:50:04.415Z,98.3
2018-11-05T12:55:04.436Z,78.3
2018-11-05T13:00:04.720Z,87.5
2018-11-05T13:05:04.443Z,75
2018-11-05T13:10:04.332Z,62.5
2018-11-05T13:15:04.140Z,55
2018-11-05T13:20:04.077Z,35
2018-11-05T13:25:04.355Z,33.3
2018-11-05T13:30:04.251Z,40.8
2018-11-05T13:35:04.479Z,48.3
2018-11-05T13:40:04.135Z,47.5
2018-11-05T13:45:04.355Z,45.8
2018-11-05T13:50:04.515Z,37.5
2018-11-05T13:55:04.850Z,50.8
2018-11-05T14:00:04.641Z,50.8
2018-11-05T14:05:04.564Z,43.3
2018-11-05T14:10:04.179Z,29.2
2018-11-05T14:15:04.601Z,35.8
2018-11-05T14:20:04.528Z,27.5
2018-11-05T14:25:04.443Z,20.8
2018-11-05T14:30:04.310Z,19.2
2018-11-05T14:35:04.196Z,20
2018-11-05T14:40:04.054Z,18.3
2018-11-05T14:45:03.969Z,22.5
2018-11-05T14:50:04.210Z,19.2
2018-11-05T14:55:03.993Z,16.7
2018-11-05T15:00:04.090Z,16.7
2018-11-05T15:05:03.971Z,15.8
2018-11-05T15:10:04.047Z,12.5
2018-11-05T15:15:04.140Z,8.3
2018-11-05T15:20:04.721Z,9.2
2018-11-05T15:25:04.329Z,7.5
2018-11-05T15:30:04.051Z,6.7
2018-11-05T15:35:04.439Z,5
2018-11-05T15:40:04.399Z,4.2
2018-11-05T15:45:04.016Z,3.3
2018-11-05T15:50:04.565Z,2.5
2018-11-05T15:55:04.486Z,1.7
2018-11-05T16:00:04.038Z,0.8
2018-11-05T16:05:04.930Z,0
2018-11-05T16:10:04.130Z,0
2018-11-05T16:15:04.046Z,0
2018-11-05T16:20:04.383Z,0
2018-11-05T16:25:04.582Z,0
2018-11-05T16:30:03.873Z,0
2018-11-05T16:35:04.555Z,0
2018-11-05T16:40:04.556Z,0
2018-11-05T16:45:04.120Z,0
2018-11-05T16:50:04.618Z,0
2018-11-05T16:55:04.318Z,0
2018-11-05T17:00:06.924Z,0
2018-11-05T17:05:05.098Z,0
2018-11-05T17:10:04.879Z,0
2018-11-05T17:15:04.277Z,0
2018-11-05T17:20:04.355Z,0
2018-11-05T17:25:04.646Z,0
2018-11-05T17:30:04.327Z,0
2018-11-05T18:55:07.443Z,0
2018-11-05T19:00:04.333Z,0
2018-11-05T19:05:03.961Z,0
2018-11-05T19:10:04.141Z,0
2018-11-05T19:15:04.339Z,0
2018-11-05T19:20:03.938Z,0
2018-11-05T19:25:03.934Z,0
2018-11-05T19:30:04.061Z,0
2018-11-05T19:35:04.677Z,0
2018-11-05T19:40:04.131Z,0
2018-11-05T19:45:04.192Z,0
2018-11-05T19:50:04.170Z,0
2018-11-05T19:55:05.505Z,0
2018-11-05T20:00:04.878Z,0
2018-11-05T20:05:04.633Z,0
2018-11-05T20:10:08.080Z,0
2018-11-05T20:15:04.155Z,0
2018-11-05T20:20:04.398Z,0
2018-11-05T20:25:04.671Z,0
2018-11-05T20:30:07.274Z,0
2018-11-05T20:45:06.157Z,0
2018-11-05T20:50:04.237Z,0
2018-11-05T20:55:04.594Z,0
2018-11-05T21:00:04.455Z,0
2018-11-05T21:05:04.285Z,0
2018-11-05T21:10:04.648Z,0
2018-11-05T21:15:04.560Z,0
2018-11-05T21:20:04.500Z,0
2018-11-05T21:25:04.212Z,0
2018-11-05T21:30:04.391Z,0
2018-11-05T21:35:04.545Z,0
2018-11-05T21:40:04.258Z,0
2018-11-05T21:45:04.544Z,0
2018-11-05T21:50:04.673Z,0
2018-11-05T21:55:04.200Z,0
2018-11-05T22:00:04.629Z,0
2018-11-05T22:05:04.376Z,0
2018-11-05T22:10:04.351Z,0
2018-11-05T22:15:04.293Z,0
2018-11-05T22:20:04.314Z,0
2018-11-05T22:25:04.522Z,0
2018-11-05T22:30:04.025Z,0
2018-11-05T22:35:04.386Z,0
2018-11-05T22:40:04.832Z,0
2018-11-05T22:45:04.433Z,0
2018-11-05T22:50:04.420Z,0
2018-11-05T22:55:04.468Z,0
2018-11-05T23:00:04.206Z,0
2018-11-05T23:05:04.403Z,0
2018-11-05T23:10:04.120Z,0
2018-11-05T23:15:04.348Z,0
2018-11-05T23:20:04.322Z,0
2018-11-05T23:25:04.269Z,0
2018-11-05T23:30:04.121Z,0
2018-11-05T23:35:04.099Z,0
2018-11-05T23:40:04.391Z,0
2018-11-05T23:45:04.236Z,0
2018-11-05T23:50:04.328Z,0
2018-11-05T23:55:04.156Z,0
